This is the latest recevied weather packets stored in our database for station/object 9D9-WX. If no packets are shown the sender has not sent any weather packets the latest 1 day(s).
| Time | Temp. | Humidity | Pressure | Rain* | Wind** | Luminosity | Snow |
|---|---|---|---|---|---|---|---|
| 1778058034 | 3.89° C | 69% | 981 hPa | 0 mm | - | - | - |
| 1778054435 | 4.44° C | 72% | 981 hPa | 0 mm | - | - | - |
| 1778051711 | 5° C | 72% | 980.9 hPa | 0 mm | - | - | - |
| 1778050828 | 5.56° C | 72% | 980.9 hPa | 0 mm | - | - | - |
| 1778046312 | 6.67° C | 70% | 981.5 hPa | 0 mm | - | - | - |
| 1778045424 | 6.11° C | 69% | 981.1 hPa | 0 mm | - | - | - |
| 1778044512 | 6.67° C | 69% | 981.1 hPa | 0 mm | - | - | - |
| 1778043635 | 6.67° C | 69% | 981.1 hPa | 0 mm | - | - | - |
| 1778042712 | 7.22° C | 60% | 981.9 hPa | 0 mm | - | - | - |
| 1778040035 | 6.67° C | 68% | 981.4 hPa | 0 mm | - | - | - |
| 1778039109 | 6.67° C | 58% | 981.2 hPa | 0 mm | - | - | - |
| 1778037311 | 7.78° C | 54% | 981.1 hPa | 0 mm | - | - | - |
| 1778036434 | 7.78° C | 54% | 981.1 hPa | 0 mm | - | - | - |
| 1778035511 | 7.78° C | 50% | 981 hPa | 0 mm | - | - | - |
| 1778034628 | 8.89° C | 48% | 981.3 hPa | 0 mm | - | - | - |
| 1778033711 | 8.89° C | 48% | 981.3 hPa | 0 mm | - | - | - |
| 1778031028 | 8.89° C | 43% | 980.8 hPa | 0 mm | - | - | - |
| 1778030111 | 8.33° C | 43% | 980.8 hPa | 0 mm | - | - | - |
| 1778029230 | 8.33° C | 43% | 980.8 hPa | 0 mm | - | - | - |
| 1778028310 | 9.44° C | 37% | 980.8 hPa | 0 mm | - | - | - |
| 1778027422 | 10° C | 37% | 981.2 hPa | 0 mm | - | - | - |
| 1778024710 | 10.56° C | 35% | 980.9 hPa | 0 mm | - | - | - |
| 1778023826 | 10.56° C | 34% | 980.9 hPa | 0 mm | - | - | - |
| 1778022027 | 11.11° C | 34% | 980.9 hPa | 0 mm | - | - | - |
* Rain latest hour (hover to see other rain measurements)
** Current wind speed in m/s (hover to see current wind gust speed)